Wakeman, Ohio
Current Conditions -  °F | °C
As of 4:53 AM on Saturday 01 Nov 2014 (Local Time) from KLPR Reporting Station
Moderate Rain Moderate Rain  
Wind Chill: 29°   Ceiling: 1000
Heat Index: 40°   Visibility: 5mi
Dew Point: 38°   Wind: 24mph
Humidity: 93%   Direction: 30°NNE
Pressure: 30.02"   Gusts: 30mph
Location:  41.25°N, 82.4°W
Report Text: KLPR 010853Z AUTO 03021G26KT 5SM RA BR OVC010 04/03 A3002 RMK AO2 PK WND 04032/0810 SLP171 P0012 60035 T00440033 51023 TSNO
Loading
Personal Weather Stations






























Interactive Weather Map New forecast layout! Learn more

10-Day Weather Forecast

Advertisements
Track Severe Weather on mobile